Time;durP1;ratioP1;P1;durP2;ratioP2;P2;SDS_P1;SDS_P2;PMS_P1;PMS_P2;Temp;Humidity;BMP_temperature;BMP_pressure;BME280_temperature;BME280_humidity;BME280_pressure;Samples;Min_cycle;Max_cycle;Signal;HPM_P1;HPM_P2
2022/03/04 00:00:59;;;;;;;12.40;7.68;;;;;;;;;;8255177;28;20042;-61
2022/03/04 00:05:00;;;;;;;14.70;7.40;;;;;;;;;;8254761;28;20125;-61
2022/03/04 00:09:00;;;;;;;15.23;7.15;;;;;;;;;;8253452;28;20720;-61
2022/03/04 00:13:00;;;;;;;12.07;7.60;;;;;;;;;;8252900;28;20117;-62
2022/03/04 00:17:01;;;;;;;13.00;7.40;;;;;;;;;;8251128;28;20034;-61
2022/03/04 00:21:02;;;;;;;16.10;8.45;;;;;;;;;;8253614;28;20025;-61
2022/03/04 00:25:03;;;;;;;14.98;8.43;;;;;;;;;;8252663;28;20029;-61
2022/03/04 00:29:04;;;;;;;13.55;8.02;;;;;;;;;;8257098;28;20021;-61
2022/03/04 00:33:04;;;;;;;13.98;8.45;;;;;;;;;;8256931;28;20101;-61
2022/03/04 00:37:04;;;;;;;12.87;8.20;;;;;;;;;;8255769;28;20994;-62
2022/03/04 00:41:04;;;;;;;13.57;8.45;;;;;;;;;;8255635;28;20280;-61
2022/03/04 00:45:05;;;;;;;14.25;7.93;;;;;;;;;;8255676;28;20072;-62
2022/03/04 00:49:05;;;;;;;12.73;8.32;;;;;;;;;;8256389;28;20033;-61
2022/03/04 00:53:05;;;;;;;15.85;8.75;;;;;;;;;;8254954;28;20115;-61
2022/03/04 00:57:05;;;;;;;11.98;7.30;;;;;;;;;;8254647;28;20900;-61
2022/03/04 01:01:06;;;;;;;21.67;8.77;;;;;;;;;;8254452;28;20046;-61
2022/03/04 01:05:06;;;;;;;16.88;9.25;;;;;;;;;;8254958;28;20387;-61
2022/03/04 01:09:06;;;;;;;16.60;9.27;;;;;;;;;;8250654;28;20637;-61
2022/03/04 01:13:07;;;;;;;16.13;8.60;;;;;;;;;;8254782;28;20148;-61
2022/03/04 01:17:07;;;;;;;15.27;8.52;;;;;;;;;;8251182;28;20046;-62
2022/03/04 01:21:07;;;;;;;18.90;9.63;;;;;;;;;;8252343;28;20791;-61
2022/03/04 01:25:07;;;;;;;17.67;9.27;;;;;;;;;;8250772;28;20044;-62
2022/03/04 01:29:08;;;;;;;16.45;9.43;;;;;;;;;;8254631;28;20285;-61
2022/03/04 01:33:08;;;;;;;16.37;10.07;;;;;;;;;;8254917;28;20049;-61
2022/03/04 01:37:09;;;;;;;15.50;9.40;;;;;;;;;;8255845;28;20375;-62
2022/03/04 01:41:09;;;;;;;20.42;10.25;;;;;;;;;;8253755;28;20025;-61
2022/03/04 01:45:10;;;;;;;18.50;10.38;;;;;;;;;;8255581;28;20132;-62
2022/03/04 01:49:10;;;;;;;17.95;9.63;;;;;;;;;;8250350;28;20026;-62
2022/03/04 01:53:10;;;;;;;19.05;9.88;;;;;;;;;;8253047;28;20554;-61
2022/03/04 01:57:11;;;;;;;17.10;9.60;;;;;;;;;;8253369;28;20025;-62
2022/03/04 02:01:11;;;;;;;15.70;9.45;;;;;;;;;;8251477;28;20038;-62
2022/03/04 02:05:12;;;;;;;20.73;10.80;;;;;;;;;;8254421;28;20030;-61
2022/03/04 02:09:12;;;;;;;16.88;9.52;;;;;;;;;;8249480;28;20062;-62
2022/03/04 02:13:14;;;;;;;15.57;9.45;;;;;;;;;;8252300;28;20032;-61
2022/03/04 02:17:14;;;;;;;18.30;9.68;;;;;;;;;;8251082;28;20074;-61
2022/03/04 02:21:14;;;;;;;19.50;10.93;;;;;;;;;;8251124;28;20026;-61
2022/03/04 02:25:15;;;;;;;21.90;10.73;;;;;;;;;;8250467;28;20038;-62
2022/03/04 02:29:15;;;;;;;21.40;10.07;;;;;;;;;;8253481;28;20029;-61
2022/03/04 02:33:15;;;;;;;19.65;10.55;;;;;;;;;;8251597;28;20762;-61
2022/03/04 02:37:16;;;;;;;18.35;10.65;;;;;;;;;;8251625;28;20026;-62
2022/03/04 02:41:16;;;;;;;21.58;11.35;;;;;;;;;;8255095;28;20033;-61
2022/03/04 02:45:17;;;;;;;18.95;10.60;;;;;;;;;;8253172;28;20037;-62
2022/03/04 02:49:17;;;;;;;16.50;9.85;;;;;;;;;;8252216;28;20136;-62
2022/03/04 02:53:17;;;;;;;18.38;9.50;;;;;;;;;;8251106;28;20030;-62
2022/03/04 02:57:17;;;;;;;17.35;9.45;;;;;;;;;;8251773;28;20076;-62
2022/03/04 03:01:17;;;;;;;18.55;10.15;;;;;;;;;;8250426;28;20066;-62
2022/03/04 03:05:18;;;;;;;19.92;10.38;;;;;;;;;;8251711;28;20029;-62
2022/03/04 03:09:18;;;;;;;19.13;9.82;;;;;;;;;;8248857;28;20099;-62
2022/03/04 03:13:18;;;;;;;22.60;10.73;;;;;;;;;;8251124;28;20029;-62
2022/03/04 03:17:18;;;;;;;17.35;9.95;;;;;;;;;;8249247;28;20042;-62
2022/03/04 03:21:19;;;;;;;15.35;9.32;;;;;;;;;;8253516;28;20144;-62
2022/03/04 03:25:19;;;;;;;16.17;9.67;;;;;;;;;;8256817;28;20030;-62
2022/03/04 03:29:19;;;;;;;17.00;9.68;;;;;;;;;;8256090;28;20281;-61
2022/03/04 03:33:19;;;;;;;19.50;10.52;;;;;;;;;;8256769;28;20786;-62
2022/03/04 03:37:19;;;;;;;15.90;9.85;;;;;;;;;;8259945;28;20046;-62
2022/03/04 03:41:20;;;;;;;13.73;9.75;;;;;;;;;;8258287;28;20787;-62
2022/03/04 03:45:20;;;;;;;16.30;9.75;;;;;;;;;;8258526;28;20269;-62
2022/03/04 03:49:20;;;;;;;15.48;9.63;;;;;;;;;;8259016;28;20034;-62
2022/03/04 03:53:20;;;;;;;16.10;9.55;;;;;;;;;;8256835;28;20116;-62
2022/03/04 03:57:21;;;;;;;18.83;10.82;;;;;;;;;;8256921;28;20076;-62
2022/03/04 04:01:21;;;;;;;19.27;11.02;;;;;;;;;;8254837;28;20038;-62
2022/03/04 04:05:21;;;;;;;16.75;10.50;;;;;;;;;;8256254;28;20038;-62
2022/03/04 04:09:21;;;;;;;18.08;10.68;;;;;;;;;;8256957;28;20045;-62
2022/03/04 04:13:21;;;;;;;17.83;10.48;;;;;;;;;;8255154;28;20045;-62
2022/03/04 04:17:22;;;;;;;16.42;10.38;;;;;;;;;;8255199;28;20068;-62
2022/03/04 04:21:23;;;;;;;17.30;10.30;;;;;;;;;;8255114;28;20056;-62
2022/03/04 04:25:23;;;;;;;16.88;10.95;;;;;;;;;;8255675;28;20032;-62
2022/03/04 04:29:23;;;;;;;17.77;10.63;;;;;;;;;;8254851;28;20030;-62
2022/03/04 04:33:23;;;;;;;20.15;11.65;;;;;;;;;;8253994;28;20046;-62
2022/03/04 04:37:24;;;;;;;19.25;11.48;;;;;;;;;;8257172;28;20022;-62
2022/03/04 04:41:24;;;;;;;19.35;11.00;;;;;;;;;;8257540;28;20026;-62
2022/03/04 04:45:24;;;;;;;20.20;11.63;;;;;;;;;;8255629;28;20034;-62
2022/03/04 04:49:25;;;;;;;16.67;10.70;;;;;;;;;;8256038;28;20029;-62
2022/03/04 04:53:26;;;;;;;18.70;11.05;;;;;;;;;;8256570;28;20028;-62
2022/03/04 04:57:26;;;;;;;18.65;11.50;;;;;;;;;;8255379;28;20030;-62
2022/03/04 05:01:27;;;;;;;16.80;11.15;;;;;;;;;;8253057;28;20041;-62
2022/03/04 05:05:27;;;;;;;18.90;11.98;;;;;;;;;;8256507;28;20034;-62
2022/03/04 05:09:27;;;;;;;19.20;11.82;;;;;;;;;;8241724;28;20463;-62
2022/03/04 05:13:28;;;;;;;18.83;12.10;;;;;;;;;;8255879;28;20030;-62
2022/03/04 05:17:28;;;;;;;22.15;12.20;;;;;;;;;;8253411;28;20065;-61
2022/03/04 05:21:28;;;;;;;23.10;11.43;;;;;;;;;;8254119;28;20066;-62
2022/03/04 05:25:29;;;;;;;20.92;11.98;;;;;;;;;;8253822;28;20699;-62
2022/03/04 05:29:29;;;;;;;21.90;11.95;;;;;;;;;;8250891;28;20037;-62
2022/03/04 05:33:29;;;;;;;21.00;12.23;;;;;;;;;;8252886;28;20407;-61
2022/03/04 05:37:29;;;;;;;19.85;12.10;;;;;;;;;;8253433;28;20856;-62
2022/03/04 05:41:30;;;;;;;17.80;11.25;;;;;;;;;;8249928;28;20022;-62
2022/03/04 05:45:30;;;;;;;19.60;11.38;;;;;;;;;;8254614;28;20040;-62
2022/03/04 05:49:30;;;;;;;20.52;12.50;;;;;;;;;;8253927;28;20038;-61
2022/03/04 05:53:31;;;;;;;21.67;12.48;;;;;;;;;;8249234;28;20026;-62
2022/03/04 05:57:31;;;;;;;18.05;11.68;;;;;;;;;;8254347;28;20088;-62
2022/03/04 06:01:31;;;;;;;19.35;12.43;;;;;;;;;;8249520;28;20886;-62
2022/03/04 06:05:32;;;;;;;18.70;11.95;;;;;;;;;;8252689;28;20025;-62
2022/03/04 06:09:32;;;;;;;22.35;12.70;;;;;;;;;;8251243;28;20671;-62
2022/03/04 06:13:32;;;;;;;17.95;11.02;;;;;;;;;;8253185;28;21054;-61
2022/03/04 06:17:32;;;;;;;20.02;12.38;;;;;;;;;;8250771;28;20695;-61
2022/03/04 06:21:33;;;;;;;25.35;13.90;;;;;;;;;;8250285;28;20022;-61
2022/03/04 06:25:33;;;;;;;27.95;15.18;;;;;;;;;;8249329;28;20025;-61
2022/03/04 06:29:33;;;;;;;29.63;15.25;;;;;;;;;;8250117;28;20026;-61
2022/03/04 06:33:35;;;;;;;29.15;15.80;;;;;;;;;;8252318;28;20045;-62
2022/03/04 06:37:35;;;;;;;35.83;16.40;;;;;;;;;;8252735;28;20033;-62
2022/03/04 06:41:36;;;;;;;25.33;14.30;;;;;;;;;;8252419;28;20030;-62
2022/03/04 06:45:38;;;;;;;24.50;13.98;;;;;;;;;;8252603;28;20738;-62
2022/03/04 06:49:38;;;;;;;22.45;13.13;;;;;;;;;;8254206;28;20398;-62
2022/03/04 06:53:38;;;;;;;21.02;13.02;;;;;;;;;;8251973;28;20028;-63
2022/03/04 06:57:39;;;;;;;23.52;13.35;;;;;;;;;;8252708;28;20034;-63
2022/03/04 07:01:39;;;;;;;19.30;12.68;;;;;;;;;;8250308;28;20116;-63
2022/03/04 07:05:39;;;;;;;22.23;12.95;;;;;;;;;;8250475;28;20758;-63
2022/03/04 07:09:39;;;;;;;19.02;13.10;;;;;;;;;;8249478;28;20108;-63
2022/03/04 07:13:40;;;;;;;24.73;13.65;;;;;;;;;;8250944;28;20061;-63
2022/03/04 07:17:40;;;;;;;18.60;13.77;;;;;;;;;;8248485;28;20038;-63
2022/03/04 07:21:40;;;;;;;16.65;13.15;;;;;;;;;;8248730;28;20362;-63
2022/03/04 07:25:40;;;;;;;19.90;13.13;;;;;;;;;;8250486;28;20026;-63
2022/03/04 07:29:41;;;;;;;18.67;13.43;;;;;;;;;;8248625;28;20538;-63
2022/03/04 07:33:41;;;;;;;20.73;14.88;;;;;;;;;;8249350;28;20042;-63
2022/03/04 07:37:41;;;;;;;20.70;14.45;;;;;;;;;;8251463;28;20038;-63
2022/03/04 07:41:42;;;;;;;20.52;14.38;;;;;;;;;;8251057;28;20136;-63
2022/03/04 07:45:42;;;;;;;18.90;14.18;;;;;;;;;;8252451;28;20036;-63
2022/03/04 07:49:42;;;;;;;18.98;14.55;;;;;;;;;;8253502;28;20332;-63
2022/03/04 07:53:42;;;;;;;21.50;15.20;;;;;;;;;;8251622;28;20053;-63
2022/03/04 07:57:43;;;;;;;19.98;14.98;;;;;;;;;;8250829;28;20030;-63
2022/03/04 08:01:43;;;;;;;21.27;15.70;;;;;;;;;;8249701;28;20352;-63
2022/03/04 08:05:43;;;;;;;18.90;15.35;;;;;;;;;;8249818;28;20022;-63
2022/03/04 08:09:44;;;;;;;20.45;15.27;;;;;;;;;;8254261;28;20225;-63
2022/03/04 08:13:44;;;;;;;18.23;15.30;;;;;;;;;;8254698;28;20022;-63
2022/03/04 08:17:45;;;;;;;18.67;15.70;;;;;;;;;;8255549;28;20030;-63
2022/03/04 08:21:47;;;;;;;18.13;15.50;;;;;;;;;;8255432;28;20115;-63
2022/03/04 08:25:49;;;;;;;22.20;16.13;;;;;;;;;;8254835;28;20156;-63
2022/03/04 08:29:49;;;;;;;20.57;15.20;;;;;;;;;;8255047;28;20727;-64
2022/03/04 08:33:50;;;;;;;18.35;15.80;;;;;;;;;;8252478;28;20297;-63
2022/03/04 08:37:52;;;;;;;18.10;15.48;;;;;;;;;;8253767;28;20016;-63
2022/03/04 08:41:52;;;;;;;19.13;15.45;;;;;;;;;;8259189;28;20018;-64
2022/03/04 08:45:52;;;;;;;20.38;15.88;;;;;;;;;;8259586;28;20041;-64
2022/03/04 08:49:53;;;;;;;22.77;18.83;;;;;;;;;;8255927;28;20625;-64
2022/03/04 08:53:53;;;;;;;23.40;16.17;;;;;;;;;;8257264;28;20037;-63
2022/03/04 08:57:53;;;;;;;22.02;16.35;;;;;;;;;;8256458;28;20121;-64
2022/03/04 09:01:54;;;;;;;21.60;15.90;;;;;;;;;;8255836;28;20085;-65
2022/03/04 09:05:54;;;;;;;20.17;16.67;;;;;;;;;;8254424;28;20021;-64
2022/03/04 09:09:54;;;;;;;21.85;17.13;;;;;;;;;;8253940;28;20116;-63
2022/03/04 09:13:54;;;;;;;23.48;17.30;;;;;;;;;;8253207;28;20068;-63
2022/03/04 09:17:54;;;;;;;24.00;17.42;;;;;;;;;;8252484;28;20056;-62
2022/03/04 09:21:55;;;;;;;24.85;17.75;;;;;;;;;;8254154;28;20022;-62
2022/03/04 09:25:55;;;;;;;24.70;17.65;;;;;;;;;;8251941;28;20060;-62
2022/03/04 09:29:56;;;;;;;26.17;17.30;;;;;;;;;;8259415;28;20952;-62
2022/03/04 09:33:56;;;;;;;28.25;19.60;;;;;;;;;;8249258;28;20299;-62
2022/03/04 09:37:56;;;;;;;26.60;18.60;;;;;;;;;;8251771;28;20026;-62
2022/03/04 09:41:57;;;;;;;26.45;17.90;;;;;;;;;;8251368;28;20115;-62
2022/03/04 09:45:58;;;;;;;25.02;17.58;;;;;;;;;;8254027;28;20496;-62
2022/03/04 09:49:58;;;;;;;27.20;17.73;;;;;;;;;;8253585;28;20025;-62
2022/03/04 09:53:59;;;;;;;30.10;19.02;;;;;;;;;;8253699;28;20117;-62
2022/03/04 09:57:59;;;;;;;28.27;18.40;;;;;;;;;;8256376;28;20028;-62
2022/03/04 10:01:59;;;;;;;28.13;17.98;;;;;;;;;;8253461;28;20041;-62
2022/03/04 10:06:00;;;;;;;28.23;18.30;;;;;;;;;;8253261;28;20032;-62
2022/03/04 10:10:02;;;;;;;28.65;17.95;;;;;;;;;;8251147;28;20029;-62
2022/03/04 10:14:03;;;;;;;26.83;18.02;;;;;;;;;;8253550;28;20974;-61
2022/03/04 10:18:04;;;;;;;31.15;17.20;;;;;;;;;;8250778;28;20531;-61
2022/03/04 10:22:05;;;;;;;29.60;18.73;;;;;;;;;;8251842;28;20030;-61
2022/03/04 10:26:08;;;;;;;28.02;18.02;;;;;;;;;;8251440;28;20064;-62
2022/03/04 10:30:09;;;;;;;30.95;16.98;;;;;;;;;;8234220;28;20070;-62
2022/03/04 10:34:11;;;;;;;28.75;17.80;;;;;;;;;;8248505;28;20057;-61
2022/03/04 10:38:17;;;;;;;26.02;16.75;;;;;;;;;;8242579;28;20137;-62
2022/03/04 10:42:17;;;;;;;25.95;18.23;;;;;;;;;;8250477;28;20674;-62
2022/03/04 10:46:18;;;;;;;28.25;18.02;;;;;;;;;;8252234;28;20025;-61
2022/03/04 10:50:20;;;;;;;31.10;18.52;;;;;;;;;;8250458;28;20368;-62
2022/03/04 10:54:20;;;;;;;28.52;18.13;;;;;;;;;;8255495;28;20143;-62
2022/03/04 10:58:23;;;;;;;29.33;16.87;;;;;;;;;;8254966;28;20402;-61
2022/03/04 11:02:41;;;;;;;30.13;16.30;;;;;;;;;;8251101;28;20276;-61
2022/03/04 11:06:45;;;;;;;29.67;17.98;;;;;;;;;;8252059;28;20054;-62
2022/03/04 11:10:45;;;;;;;31.98;18.52;;;;;;;;;;8250495;28;20036;-61
2022/03/04 11:14:46;;;;;;;30.38;18.23;;;;;;;;;;8250794;28;20030;-61
2022/03/04 11:18:47;;;;;;;32.75;18.52;;;;;;;;;;8248932;28;20034;-61
2022/03/04 11:22:50;;;;;;;32.95;18.58;;;;;;;;;;8249455;28;20033;-61
2022/03/04 11:26:57;;;;;;;32.22;18.33;;;;;;;;;;8250442;28;20027;-61
2022/03/04 11:31:01;;;;;;;35.47;19.90;;;;;;;;;;8247752;28;20037;-61
2022/03/04 11:35:02;;;;;;;34.88;19.27;;;;;;;;;;8248671;28;20033;-61
2022/03/04 11:39:09;;;;;;;34.40;19.93;;;;;;;;;;8248050;28;20133;-61
2022/03/04 11:43:14;;;;;;;33.08;20.42;;;;;;;;;;8252736;28;20396;-61
2022/03/04 11:47:14;;;;;;;30.70;19.45;;;;;;;;;;8254541;28;20042;-61
2022/03/04 11:51:20;;;;;;;32.60;18.90;;;;;;;;;;8258562;28;20088;-61
2022/03/04 11:55:21;;;;;;;29.60;18.48;;;;;;;;;;8256124;28;20296;-61
2022/03/04 11:59:21;;;;;;;34.38;19.83;;;;;;;;;;8258736;28;20021;-61
2022/03/04 12:03:22;;;;;;;30.48;17.35;;;;;;;;;;8257737;28;20042;-61
2022/03/04 12:07:33;;;;;;;26.63;15.48;;;;;;;;;;8255323;28;20036;-61
2022/03/04 12:11:33;;;;;;;31.80;17.23;;;;;;;;;;8261153;28;20037;-64
2022/03/04 12:15:38;;;;;;;31.17;17.10;;;;;;;;;;8268368;28;20060;-64
2022/03/04 12:19:39;;;;;;;29.73;17.63;;;;;;;;;;8261148;28;20080;-64
2022/03/04 12:23:42;;;;;;;30.75;18.00;;;;;;;;;;8256516;28;20042;-65
2022/03/04 12:27:43;;;;;;;34.93;19.57;;;;;;;;;;8257104;28;20029;-64
2022/03/04 12:31:44;;;;;;;34.63;18.55;;;;;;;;;;8255214;28;20510;-63
2022/03/04 12:35:44;;;;;;;32.85;19.00;;;;;;;;;;8262674;28;20028;-63
2022/03/04 12:39:50;;;;;;;29.80;18.35;;;;;;;;;;8254238;28;20052;-63
2022/03/04 12:43:53;;;;;;;33.70;19.25;;;;;;;;;;8254742;28;20029;-63
2022/03/04 12:47:53;;;;;;;32.58;19.08;;;;;;;;;;8253557;28;20042;-62
2022/03/04 12:51:54;;;;;;;34.70;18.93;;;;;;;;;;8253637;28;20026;-61
2022/03/04 12:55:56;;;;;;;32.85;17.60;;;;;;;;;;8256349;28;20041;-61
2022/03/04 12:59:56;;;;;;;28.42;16.90;;;;;;;;;;8256065;28;20018;-61
2022/03/04 13:04:01;;;;;;;27.92;17.55;;;;;;;;;;8254780;28;20029;-61
2022/03/04 13:08:01;;;;;;;30.58;17.85;;;;;;;;;;8253116;28;20029;-61
2022/03/04 13:12:05;;;;;;;30.17;17.10;;;;;;;;;;8254225;28;20030;-61
2022/03/04 13:16:06;;;;;;;33.10;18.63;;;;;;;;;;8252646;28;20038;-61
2022/03/04 13:20:07;;;;;;;28.73;18.07;;;;;;;;;;8254572;28;20729;-61
2022/03/04 13:24:08;;;;;;;26.33;16.67;;;;;;;;;;8252212;28;20062;-61
2022/03/04 13:28:08;;;;;;;27.63;17.20;;;;;;;;;;8253294;28;20034;-61
2022/03/04 13:32:09;;;;;;;29.25;16.48;;;;;;;;;;8252084;28;20910;-61
2022/03/04 13:36:09;;;;;;;30.38;17.77;;;;;;;;;;8253352;28;20125;-61
2022/03/04 13:40:13;;;;;;;28.73;17.77;;;;;;;;;;8252227;28;20845;-61
2022/03/04 13:44:15;;;;;;;27.50;17.30;;;;;;;;;;8249745;28;20058;-61
2022/03/04 13:48:15;;;;;;;29.48;18.02;;;;;;;;;;8252929;28;20602;-61
2022/03/04 13:52:17;;;;;;;30.10;17.63;;;;;;;;;;8252855;28;20064;-61
2022/03/04 13:56:17;;;;;;;30.70;19.00;;;;;;;;;;8254709;28;20295;-61
2022/03/04 14:00:17;;;;;;;32.90;18.65;;;;;;;;;;8252058;28;20485;-61
2022/03/04 14:04:19;;;;;;;30.25;18.88;;;;;;;;;;8255742;28;20027;-61
2022/03/04 14:08:19;;;;;;;30.70;18.95;;;;;;;;;;8253489;28;20148;-63
2022/03/04 14:12:19;;;;;;;26.88;16.77;;;;;;;;;;8253050;28;20053;-62
2022/03/04 14:16:21;;;;;;;25.00;16.42;;;;;;;;;;8252496;28;20042;-61
2022/03/04 14:20:23;;;;;;;25.80;16.50;;;;;;;;;;8251621;28;20032;-61
2022/03/04 14:24:23;;;;;;;27.92;17.27;;;;;;;;;;8251437;28;20029;-61
2022/03/04 14:28:23;;;;;;;26.95;17.02;;;;;;;;;;8251877;28;20478;-61
2022/03/04 14:32:23;;;;;;;26.35;16.95;;;;;;;;;;8249577;28;20038;-61
2022/03/04 14:36:23;;;;;;;26.27;17.10;;;;;;;;;;8248560;28;20033;-61
2022/03/04 14:40:24;;;;;;;26.77;16.77;;;;;;;;;;8249042;28;20821;-61
2022/03/04 14:44:24;;;;;;;29.35;16.75;;;;;;;;;;8248980;28;20026;-61
2022/03/04 14:48:24;;;;;;;29.83;16.45;;;;;;;;;;8249589;28;20507;-61
2022/03/04 14:52:25;;;;;;;27.00;16.92;;;;;;;;;;8248714;28;20022;-61
2022/03/04 14:56:25;;;;;;;26.70;15.30;;;;;;;;;;8252574;28;20029;-61
2022/03/04 15:00:26;;;;;;;28.33;16.03;;;;;;;;;;8251394;28;20101;-61
2022/03/04 15:04:26;;;;;;;22.92;12.75;;;;;;;;;;8250134;28;20277;-61
2022/03/04 15:08:26;;;;;;;20.50;12.80;;;;;;;;;;8254944;28;20033;-61
2022/03/04 15:12:26;;;;;;;21.30;14.07;;;;;;;;;;8249349;28;20030;-61
2022/03/04 15:16:27;;;;;;;28.48;16.58;;;;;;;;;;8257936;28;20045;-61
2022/03/04 15:20:27;;;;;;;30.23;16.47;;;;;;;;;;8261338;28;20025;-61
2022/03/04 15:24:27;;;;;;;25.17;14.63;;;;;;;;;;8261108;28;20376;-61
2022/03/04 15:28:28;;;;;;;27.15;15.20;;;;;;;;;;8260634;28;20616;-61
2022/03/04 15:32:29;;;;;;;26.17;14.52;;;;;;;;;;8260071;28;20112;-62
2022/03/04 15:36:29;;;;;;;26.50;15.38;;;;;;;;;;8258506;28;20384;-62
2022/03/04 15:40:29;;;;;;;25.97;14.60;;;;;;;;;;8259967;28;20128;-61
2022/03/04 15:44:30;;;;;;;25.83;15.18;;;;;;;;;;8260778;28;20596;-62
2022/03/04 15:48:31;;;;;;;21.65;13.55;;;;;;;;;;8258655;28;20042;-62
2022/03/04 15:52:31;;;;;;;26.30;14.98;;;;;;;;;;8261083;28;20890;-62
2022/03/04 15:56:32;;;;;;;28.70;16.20;;;;;;;;;;8262196;28;20036;-62
2022/03/04 16:00:33;;;;;;;28.77;16.40;;;;;;;;;;8262592;28;20034;-61
2022/03/04 16:04:33;;;;;;;30.50;16.20;;;;;;;;;;8262458;28;20562;-62
2022/03/04 16:08:33;;;;;;;30.13;16.30;;;;;;;;;;8262452;28;20289;-62
2022/03/04 16:12:33;;;;;;;28.33;15.30;;;;;;;;;;8260411;28;20355;-62
2022/03/04 16:16:34;;;;;;;26.70;15.25;;;;;;;;;;8260003;28;20329;-62
2022/03/04 16:20:34;;;;;;;24.88;13.70;;;;;;;;;;8256979;28;20029;-62
2022/03/04 16:24:34;;;;;;;27.25;14.90;;;;;;;;;;8250779;28;20766;-62
2022/03/04 16:28:35;;;;;;;28.17;15.07;;;;;;;;;;8254076;28;20034;-65
2022/03/04 16:32:35;;;;;;;27.85;15.75;;;;;;;;;;8253585;28;20049;-62
2022/03/04 16:36:36;;;;;;;28.17;14.60;;;;;;;;;;8252532;28;20096;-62
2022/03/04 16:40:38;;;;;;;28.67;16.52;;;;;;;;;;8253203;28;20049;-62
2022/03/04 16:44:38;;;;;;;29.83;16.33;;;;;;;;;;8252394;28;20018;-62
2022/03/04 16:48:38;;;;;;;28.33;15.95;;;;;;;;;;8251475;28;20123;-62
2022/03/04 16:52:38;;;;;;;28.10;15.90;;;;;;;;;;8249218;28;20038;-62
2022/03/04 16:56:41;;;;;;;28.88;16.63;;;;;;;;;;8251555;28;20327;-62
2022/03/04 17:00:44;;;;;;;26.67;15.73;;;;;;;;;;8251610;28;20042;-62
2022/03/04 17:04:44;;;;;;;30.17;16.05;;;;;;;;;;8253872;28;20033;-62
2022/03/04 17:08:44;;;;;;;28.40;15.48;;;;;;;;;;8254102;28;20558;-62
2022/03/04 17:12:44;;;;;;;28.38;14.82;;;;;;;;;;8254416;28;20024;-62
2022/03/04 17:16:45;;;;;;;28.88;15.77;;;;;;;;;;8252193;28;20042;-62
2022/03/04 17:20:45;;;;;;;29.30;16.00;;;;;;;;;;8250934;28;20050;-62
2022/03/04 17:24:46;;;;;;;30.38;15.75;;;;;;;;;;8249883;28;20029;-62
2022/03/04 17:28:46;;;;;;;25.85;15.82;;;;;;;;;;8250836;28;20014;-62
2022/03/04 17:32:46;;;;;;;26.60;16.10;;;;;;;;;;8249784;28;20069;-62
2022/03/04 17:36:46;;;;;;;28.05;15.35;;;;;;;;;;8250440;28;20529;-62
2022/03/04 17:40:47;;;;;;;27.93;15.50;;;;;;;;;;8248973;28;20026;-62
2022/03/04 17:44:47;;;;;;;30.70;15.50;;;;;;;;;;8248709;28;20269;-62
2022/03/04 17:48:53;;;;;;;30.10;16.23;;;;;;;;;;8245433;28;20112;-62
2022/03/04 17:52:53;;;;;;;30.52;16.05;;;;;;;;;;8239183;28;20026;-62
2022/03/04 17:56:53;;;;;;;32.08;16.90;;;;;;;;;;8251226;28;20033;-62
2022/03/04 18:00:54;;;;;;;36.33;16.48;;;;;;;;;;8245090;28;20038;-62
2022/03/04 18:04:54;;;;;;;29.38;16.17;;;;;;;;;;8250368;28;20025;-62
2022/03/04 18:08:54;;;;;;;32.47;16.50;;;;;;;;;;8247220;28;20037;-61
2022/03/04 18:12:57;;;;;;;29.88;16.52;;;;;;;;;;8249485;28;20783;-62
2022/03/04 18:16:57;;;;;;;34.15;17.67;;;;;;;;;;8248214;28;20041;-61
2022/03/04 18:20:57;;;;;;;36.42;18.60;;;;;;;;;;8250349;28;20027;-61
2022/03/04 18:24:57;;;;;;;30.08;16.70;;;;;;;;;;8249922;28;20029;-62
2022/03/04 18:28:58;;;;;;;32.90;16.88;;;;;;;;;;8248091;28;20021;-62
2022/03/04 18:32:58;;;;;;;33.75;16.92;;;;;;;;;;8249664;28;20683;-62
2022/03/04 18:36:58;;;;;;;33.25;18.77;;;;;;;;;;8247839;28;20026;-61
2022/03/04 18:40:58;;;;;;;32.50;17.97;;;;;;;;;;8247563;28;20079;-61
2022/03/04 18:49:17;;;;;;;36.03;18.30;;;;;;;;;;8282012;28;20049;-61
2022/03/04 18:53:18;;;;;;;34.13;17.98;;;;;;;;;;8281383;28;20037;-62
2022/03/04 18:57:18;;;;;;;32.00;17.70;;;;;;;;;;8283863;28;20075;-62
2022/03/04 19:01:37;;;;;;;34.88;17.98;;;;;;;;;;8282153;28;20038;-61
2022/03/04 19:05:37;;;;;;;38.17;19.17;;;;;;;;;;8284648;28;20037;-61
2022/03/04 19:09:38;;;;;;;30.98;16.83;;;;;;;;;;8282093;28;20033;-61
2022/03/04 19:13:38;;;;;;;32.78;17.27;;;;;;;;;;8283994;28;20755;-61
2022/03/04 19:17:40;;;;;;;35.38;17.90;;;;;;;;;;8283130;28;20588;-61
2022/03/04 19:21:41;;;;;;;35.30;17.42;;;;;;;;;;8281487;28;20111;-61
2022/03/04 19:25:41;;;;;;;32.60;17.65;;;;;;;;;;8279081;28;20635;-61
2022/03/04 19:29:41;;;;;;;30.63;15.80;;;;;;;;;;8278961;28;21019;-62
2022/03/04 19:33:41;;;;;;;32.60;17.63;;;;;;;;;;8277270;28;20041;-61
2022/03/04 19:37:42;;;;;;;35.47;17.77;;;;;;;;;;8277602;28;20288;-61
2022/03/04 19:41:42;;;;;;;34.05;17.45;;;;;;;;;;8278218;28;20028;-61
2022/03/04 19:45:42;;;;;;;37.20;16.87;;;;;;;;;;8249994;28;20065;-62
2022/03/04 19:49:43;;;;;;;33.05;16.58;;;;;;;;;;8281091;28;20249;-61
2022/03/04 19:53:43;;;;;;;33.08;16.35;;;;;;;;;;8279395;28;20033;-61
2022/03/04 19:57:44;;;;;;;32.13;16.13;;;;;;;;;;8282251;28;20080;-62
2022/03/04 20:01:44;;;;;;;30.75;14.70;;;;;;;;;;8279845;28;20033;-62
2022/03/04 20:05:44;;;;;;;28.13;14.73;;;;;;;;;;8286835;28;20437;-62
2022/03/04 20:09:44;;;;;;;30.47;15.57;;;;;;;;;;8289309;28;20284;-62
2022/03/04 20:13:45;;;;;;;28.95;14.57;;;;;;;;;;8288463;28;20260;-62
2022/03/04 20:17:45;;;;;;;28.23;15.15;;;;;;;;;;8284337;28;20076;-62
2022/03/04 20:21:45;;;;;;;28.55;14.98;;;;;;;;;;8285938;28;20028;-61
2022/03/04 20:25:47;;;;;;;29.43;15.30;;;;;;;;;;8284439;28;20028;-62
2022/03/04 20:29:47;;;;;;;29.00;15.50;;;;;;;;;;8284188;28;20399;-61
2022/03/04 20:33:50;;;;;;;33.23;15.30;;;;;;;;;;8284475;28;20057;-62
2022/03/04 20:37:51;;;;;;;37.60;16.70;;;;;;;;;;8282764;28;20341;-61
2022/03/04 20:41:51;;;;;;;30.52;16.35;;;;;;;;;;8284379;28;20883;-61
2022/03/04 20:45:51;;;;;;;29.45;16.42;;;;;;;;;;8281247;28;20037;-61
2022/03/04 20:49:51;;;;;;;30.97;15.17;;;;;;;;;;8283725;28;20022;-61
2022/03/04 20:53:52;;;;;;;29.92;14.95;;;;;;;;;;8284762;28;20363;-61
2022/03/04 20:57:52;;;;;;;31.63;15.73;;;;;;;;;;8287764;28;20087;-61
2022/03/04 21:01:52;;;;;;;30.05;15.27;;;;;;;;;;8284595;28;20041;-62
2022/03/04 21:05:52;;;;;;;35.20;17.13;;;;;;;;;;8286378;28;20022;-61
2022/03/04 21:09:52;;;;;;;30.83;15.98;;;;;;;;;;8285770;28;20090;-61
2022/03/04 21:13:53;;;;;;;31.67;15.95;;;;;;;;;;8283043;28;20292;-62
2022/03/04 21:17:54;;;;;;;29.92;15.18;;;;;;;;;;8283227;28;20395;-62
2022/03/04 21:21:54;;;;;;;33.78;15.02;;;;;;;;;;8284165;28;20017;-62
2022/03/04 21:25:55;;;;;;;35.20;16.80;;;;;;;;;;8281631;28;20121;-62
2022/03/04 21:29:56;;;;;;;33.92;16.25;;;;;;;;;;8277308;28;20021;-61
2022/03/04 21:33:56;;;;;;;35.72;17.88;;;;;;;;;;8281270;28;20030;-61
2022/03/04 21:37:57;;;;;;;36.20;16.98;;;;;;;;;;8279312;28;20030;-62
2022/03/04 21:41:58;;;;;;;35.47;16.65;;;;;;;;;;8281456;28;20993;-61
2022/03/04 21:45:58;;;;;;;31.95;15.52;;;;;;;;;;8277342;28;20030;-61
2022/03/04 21:49:59;;;;;;;35.30;15.32;;;;;;;;;;8280172;28;20029;-62
2022/03/04 21:53:59;;;;;;;33.90;15.77;;;;;;;;;;8281134;28;20032;-62
2022/03/04 21:58:00;;;;;;;39.63;16.83;;;;;;;;;;8283880;28;20033;-61
2022/03/04 22:02:00;;;;;;;33.08;14.85;;;;;;;;;;8281050;28;20119;-61
2022/03/04 22:06:00;;;;;;;35.20;16.73;;;;;;;;;;8282773;28;20140;-61
2022/03/04 22:10:00;;;;;;;34.25;16.77;;;;;;;;;;8281500;28;20034;-62
2022/03/04 22:14:00;;;;;;;48.90;19.50;;;;;;;;;;8282637;28;20045;-61
2022/03/04 22:18:01;;;;;;;36.92;16.15;;;;;;;;;;8279861;28;20215;-61
2022/03/04 22:22:01;;;;;;;38.20;18.47;;;;;;;;;;8281963;28;20132;-62
2022/03/04 22:26:01;;;;;;;38.95;18.05;;;;;;;;;;8279586;28;20629;-61
2022/03/04 22:30:02;;;;;;;40.20;18.80;;;;;;;;;;8279907;28;20134;-61
2022/03/04 22:34:02;;;;;;;38.35;17.55;;;;;;;;;;8280900;28;20757;-61
2022/03/04 22:38:03;;;;;;;35.05;16.38;;;;;;;;;;8279500;28;20026;-61
2022/03/04 22:42:03;;;;;;;37.20;16.02;;;;;;;;;;8266634;28;20087;-62
2022/03/04 22:46:03;;;;;;;34.95;16.00;;;;;;;;;;8278631;28;20034;-61
2022/03/04 22:50:04;;;;;;;39.25;15.88;;;;;;;;;;8279440;28;20018;-62
2022/03/04 22:54:08;;;;;;;35.33;15.77;;;;;;;;;;8281421;28;20025;-62
2022/03/04 22:58:08;;;;;;;32.00;15.00;;;;;;;;;;8284000;28;20055;-62
2022/03/04 23:02:08;;;;;;;36.85;15.38;;;;;;;;;;8281179;28;20280;-61
2022/03/04 23:14:47;;;;;;;32.58;14.95;;;;;;;;;;8279737;28;20052;-61
2022/03/04 23:18:47;;;;;;;35.10;15.63;;;;;;;;;;8281668;28;20037;-61
2022/03/04 23:22:47;;;;;;;34.35;14.57;;;;;;;;;;8280789;28;20276;-61
2022/03/04 23:26:48;;;;;;;34.15;14.65;;;;;;;;;;8279727;28;20044;-61
2022/03/04 23:30:49;;;;;;;33.83;15.23;;;;;;;;;;8277704;28;20042;-61
2022/03/04 23:34:49;;;;;;;35.42;15.02;;;;;;;;;;8280687;28;20135;-62